sensor_id;sensor_type;location;lat;lon;timestamp;temperature;humidity
80234;DHT22;69712;42.142;24.766;2023-05-23T00:01:41;17.60;62.60
80234;DHT22;69712;42.142;24.766;2023-05-23T00:04:07;17.50;62.90
80234;DHT22;69712;42.142;24.766;2023-05-23T00:06:34;17.40;62.80
80234;DHT22;69712;42.142;24.766;2023-05-23T00:09:03;17.40;62.80
80234;DHT22;69712;42.142;24.766;2023-05-23T00:11:29;17.40;62.50
80234;DHT22;69712;42.142;24.766;2023-05-23T00:13:55;17.20;62.90
80234;DHT22;69712;42.142;24.766;2023-05-23T00:16:25;17.10;63.50
80234;DHT22;69712;42.142;24.766;2023-05-23T00:18:51;17.10;63.50
80234;DHT22;69712;42.142;24.766;2023-05-23T00:21:18;17.20;63.50
80234;DHT22;69712;42.142;24.766;2023-05-23T00:23:43;17.20;63.30
80234;DHT22;69712;42.142;24.766;2023-05-23T00:26:09;17.30;63.00
80234;DHT22;69712;42.142;24.766;2023-05-23T00:28:36;17.10;63.30
80234;DHT22;69712;42.142;24.766;2023-05-23T00:31:02;17.00;63.80
80234;DHT22;69712;42.142;24.766;2023-05-23T00:33:28;17.10;63.70
80234;DHT22;69712;42.142;24.766;2023-05-23T00:35:54;17.10;63.70
80234;DHT22;69712;42.142;24.766;2023-05-23T00:38:20;17.10;63.30
80234;DHT22;69712;42.142;24.766;2023-05-23T00:40:46;17.20;62.80
80234;DHT22;69712;42.142;24.766;2023-05-23T00:43:12;17.20;63.00
80234;DHT22;69712;42.142;24.766;2023-05-23T00:45:38;17.30;63.00
80234;DHT22;69712;42.142;24.766;2023-05-23T00:48:05;17.20;63.30
80234;DHT22;69712;42.142;24.766;2023-05-23T00:50:32;17.10;63.30
80234;DHT22;69712;42.142;24.766;2023-05-23T00:52:59;17.10;63.20
80234;DHT22;69712;42.142;24.766;2023-05-23T00:55:26;17.30;63.10
80234;DHT22;69712;42.142;24.766;2023-05-23T00:57:53;17.20;63.10
80234;DHT22;69712;42.142;24.766;2023-05-23T01:00:22;17.20;63.10
80234;DHT22;69712;42.142;24.766;2023-05-23T01:02:50;17.10;63.40
80234;DHT22;69712;42.142;24.766;2023-05-23T01:05:16;17.10;63.40
80234;DHT22;69712;42.142;24.766;2023-05-23T01:07:46;17.20;63.30
80234;DHT22;69712;42.142;24.766;2023-05-23T01:10:24;17.00;63.90
80234;DHT22;69712;42.142;24.766;2023-05-23T01:18:37;17.00;63.90
80234;DHT22;69712;42.142;24.766;2023-05-23T01:21:11;16.80;64.10
80234;DHT22;69712;42.142;24.766;2023-05-23T01:26:21;16.70;64.40
80234;DHT22;69712;42.142;24.766;2023-05-23T01:28:55;16.70;64.40
80234;DHT22;69712;42.142;24.766;2023-05-23T01:31:23;16.70;64.60
80234;DHT22;69712;42.142;24.766;2023-05-23T01:33:53;16.70;64.60
80234;DHT22;69712;42.142;24.766;2023-05-23T01:36:19;16.70;64.50
80234;DHT22;69712;42.142;24.766;2023-05-23T01:38:45;16.80;63.80
80234;DHT22;69712;42.142;24.766;2023-05-23T01:41:11;16.90;63.70
80234;DHT22;69712;42.142;24.766;2023-05-23T01:43:37;16.90;63.60
80234;DHT22;69712;42.142;24.766;2023-05-23T01:46:03;16.90;63.30
80234;DHT22;69712;42.142;24.766;2023-05-23T01:48:30;16.80;63.60
80234;DHT22;69712;42.142;24.766;2023-05-23T01:50:56;16.80;63.50
80234;DHT22;69712;42.142;24.766;2023-05-23T01:53:23;16.70;63.40
80234;DHT22;69712;42.142;24.766;2023-05-23T01:55:51;16.70;63.60
80234;DHT22;69712;42.142;24.766;2023-05-23T01:58:17;16.70;63.70
80234;DHT22;69712;42.142;24.766;2023-05-23T02:00:42;16.70;63.40
80234;DHT22;69712;42.142;24.766;2023-05-23T02:03:08;16.90;63.20
80234;DHT22;69712;42.142;24.766;2023-05-23T02:05:36;16.90;62.90
80234;DHT22;69712;42.142;24.766;2023-05-23T02:08:01;16.90;63.10
80234;DHT22;69712;42.142;24.766;2023-05-23T02:10:27;17.10;62.40
80234;DHT22;69712;42.142;24.766;2023-05-23T02:12:53;17.10;62.10
80234;DHT22;69712;42.142;24.766;2023-05-23T02:15:19;16.80;62.10
80234;DHT22;69712;42.142;24.766;2023-05-23T02:17:45;16.70;62.60
80234;DHT22;69712;42.142;24.766;2023-05-23T02:20:12;16.60;62.60
80234;DHT22;69712;42.142;24.766;2023-05-23T02:22:38;16.60;62.70
80234;DHT22;69712;42.142;24.766;2023-05-23T02:25:05;16.50;62.40
80234;DHT22;69712;42.142;24.766;2023-05-23T02:27:31;16.50;62.50
80234;DHT22;69712;42.142;24.766;2023-05-23T02:29:56;16.50;62.80
80234;DHT22;69712;42.142;24.766;2023-05-23T02:32:22;16.50;62.60
80234;DHT22;69712;42.142;24.766;2023-05-23T02:34:47;16.50;62.70
80234;DHT22;69712;42.142;24.766;2023-05-23T02:37:15;16.50;63.00
80234;DHT22;69712;42.142;24.766;2023-05-23T02:39:42;16.40;63.10
80234;DHT22;69712;42.142;24.766;2023-05-23T02:42:08;16.40;63.20
80234;DHT22;69712;42.142;24.766;2023-05-23T02:44:33;16.50;63.10
80234;DHT22;69712;42.142;24.766;2023-05-23T02:46:59;16.40;62.70
80234;DHT22;69712;42.142;24.766;2023-05-23T02:49:25;16.50;62.80
80234;DHT22;69712;42.142;24.766;2023-05-23T02:51:50;16.50;62.80
80234;DHT22;69712;42.142;24.766;2023-05-23T02:54:16;16.50;62.80
80234;DHT22;69712;42.142;24.766;2023-05-23T02:56:44;16.50;62.90
80234;DHT22;69712;42.142;24.766;2023-05-23T02:59:09;16.30;63.00
80234;DHT22;69712;42.142;24.766;2023-05-23T03:01:36;16.30;63.40
80234;DHT22;69712;42.142;24.766;2023-05-23T03:04:05;16.40;63.20
80234;DHT22;69712;42.142;24.766;2023-05-23T03:06:31;16.50;62.90
80234;DHT22;69712;42.142;24.766;2023-05-23T03:08:58;16.50;63.00
80234;DHT22;69712;42.142;24.766;2023-05-23T03:11:24;16.50;62.40
80234;DHT22;69712;42.142;24.766;2023-05-23T03:13:50;16.50;62.30
80234;DHT22;69712;42.142;24.766;2023-05-23T03:16:16;16.50;62.10
80234;DHT22;69712;42.142;24.766;2023-05-23T03:18:41;16.60;62.00
80234;DHT22;69712;42.142;24.766;2023-05-23T03:21:07;16.70;61.70
80234;DHT22;69712;42.142;24.766;2023-05-23T03:23:34;16.70;61.40
80234;DHT22;69712;42.142;24.766;2023-05-23T03:26:01;16.90;61.10
80234;DHT22;69712;42.142;24.766;2023-05-23T03:28:29;16.80;61.70
80234;DHT22;69712;42.142;24.766;2023-05-23T03:30:55;16.90;61.30
80234;DHT22;69712;42.142;24.766;2023-05-23T03:33:20;16.80;61.50
80234;DHT22;69712;42.142;24.766;2023-05-23T03:35:46;16.80;61.60
80234;DHT22;69712;42.142;24.766;2023-05-23T03:38:12;16.80;61.70
80234;DHT22;69712;42.142;24.766;2023-05-23T03:40:38;16.60;62.10
80234;DHT22;69712;42.142;24.766;2023-05-23T03:43:06;16.70;62.00
80234;DHT22;69712;42.142;24.766;2023-05-23T03:45:36;16.90;61.70
80234;DHT22;69712;42.142;24.766;2023-05-23T03:48:02;16.90;61.60
80234;DHT22;69712;42.142;24.766;2023-05-23T03:50:27;16.80;64.10
80234;DHT22;69712;42.142;24.766;2023-05-23T03:52:53;16.80;61.70
80234;DHT22;69712;42.142;24.766;2023-05-23T03:55:20;16.80;61.90
80234;DHT22;69712;42.142;24.766;2023-05-23T03:57:47;16.80;62.70
80234;DHT22;69712;42.142;24.766;2023-05-23T04:00:13;16.70;63.40
80234;DHT22;69712;42.142;24.766;2023-05-23T04:02:39;16.70;63.20
80234;DHT22;69712;42.142;24.766;2023-05-23T04:05:06;16.80;62.90
80234;DHT22;69712;42.142;24.766;2023-05-23T04:07:35;16.90;61.30
80234;DHT22;69712;42.142;24.766;2023-05-23T04:10:01;16.80;60.90
80234;DHT22;69712;42.142;24.766;2023-05-23T04:12:27;16.90;60.30
80234;DHT22;69712;42.142;24.766;2023-05-23T04:14:55;16.80;60.10
80234;DHT22;69712;42.142;24.766;2023-05-23T04:17:22;16.70;60.10
80234;DHT22;69712;42.142;24.766;2023-05-23T04:19:49;16.70;59.80
80234;DHT22;69712;42.142;24.766;2023-05-23T04:22:15;16.70;60.00
80234;DHT22;69712;42.142;24.766;2023-05-23T04:24:41;16.80;59.60
80234;DHT22;69712;42.142;24.766;2023-05-23T04:27:07;16.80;59.30
80234;DHT22;69712;42.142;24.766;2023-05-23T04:29:34;17.00;58.50
80234;DHT22;69712;42.142;24.766;2023-05-23T04:32:01;17.20;58.20
80234;DHT22;69712;42.142;24.766;2023-05-23T04:34:27;17.30;57.80
80234;DHT22;69712;42.142;24.766;2023-05-23T04:36:53;17.40;57.60
80234;DHT22;69712;42.142;24.766;2023-05-23T04:39:19;17.30;58.20
80234;DHT22;69712;42.142;24.766;2023-05-23T04:41:45;17.50;57.50
80234;DHT22;69712;42.142;24.766;2023-05-23T04:44:11;17.70;57.30
80234;DHT22;69712;42.142;24.766;2023-05-23T04:46:39;17.50;57.90
80234;DHT22;69712;42.142;24.766;2023-05-23T04:49:09;17.70;57.70
80234;DHT22;69712;42.142;24.766;2023-05-23T04:51:35;17.90;57.50
80234;DHT22;69712;42.142;24.766;2023-05-23T04:54:01;17.80;57.90
80234;DHT22;69712;42.142;24.766;2023-05-23T04:56:27;17.90;57.10
80234;DHT22;69712;42.142;24.766;2023-05-23T04:58:53;18.00;57.00
80234;DHT22;69712;42.142;24.766;2023-05-23T05:01:19;17.90;56.80
80234;DHT22;69712;42.142;24.766;2023-05-23T05:03:45;18.20;56.50
80234;DHT22;69712;42.142;24.766;2023-05-23T05:06:12;18.30;56.30
80234;DHT22;69712;42.142;24.766;2023-05-23T05:08:38;18.40;56.20
80234;DHT22;69712;42.142;24.766;2023-05-23T05:11:05;18.50;55.40
80234;DHT22;69712;42.142;24.766;2023-05-23T05:13:31;18.70;55.10
80234;DHT22;69712;42.142;24.766;2023-05-23T05:15:56;18.70;55.30
80234;DHT22;69712;42.142;24.766;2023-05-23T05:18:24;18.80;54.50
80234;DHT22;69712;42.142;24.766;2023-05-23T05:20:51;18.80;54.20
80234;DHT22;69712;42.142;24.766;2023-05-23T05:23:17;19.00;54.40
80234;DHT22;69712;42.142;24.766;2023-05-23T05:25:42;19.00;53.90
80234;DHT22;69712;42.142;24.766;2023-05-23T05:28:08;19.00;53.80
80234;DHT22;69712;42.142;24.766;2023-05-23T05:30:34;19.20;53.40
80234;DHT22;69712;42.142;24.766;2023-05-23T05:33:01;19.30;53.70
80234;DHT22;69712;42.142;24.766;2023-05-23T05:35:30;19.40;53.60
80234;DHT22;69712;42.142;24.766;2023-05-23T05:37:56;19.50;53.40
80234;DHT22;69712;42.142;24.766;2023-05-23T05:40:22;19.50;53.70
80234;DHT22;69712;42.142;24.766;2023-05-23T05:42:48;19.50;53.70
80234;DHT22;69712;42.142;24.766;2023-05-23T05:45:13;19.60;53.70
80234;DHT22;69712;42.142;24.766;2023-05-23T05:47:39;19.70;53.20
80234;DHT22;69712;42.142;24.766;2023-05-23T05:50:06;19.90;53.10
80234;DHT22;69712;42.142;24.766;2023-05-23T05:52:35;20.00;52.70
80234;DHT22;69712;42.142;24.766;2023-05-23T05:55:05;20.00;52.70
80234;DHT22;69712;42.142;24.766;2023-05-23T05:57:31;20.10;52.90
80234;DHT22;69712;42.142;24.766;2023-05-23T05:59:57;20.40;52.60
80234;DHT22;69712;42.142;24.766;2023-05-23T06:02:23;20.30;51.50
80234;DHT22;69712;42.142;24.766;2023-05-23T06:04:49;20.40;51.70
80234;DHT22;69712;42.142;24.766;2023-05-23T06:07:15;20.70;51.70
80234;DHT22;69712;42.142;24.766;2023-05-23T06:09:41;20.80;50.60
80234;DHT22;69712;42.142;24.766;2023-05-23T06:12:06;21.10;49.80
80234;DHT22;69712;42.142;24.766;2023-05-23T06:14:32;21.40;50.20
80234;DHT22;69712;42.142;24.766;2023-05-23T06:16:58;21.90;48.80
80234;DHT22;69712;42.142;24.766;2023-05-23T06:19:24;22.30;47.20
80234;DHT22;69712;42.142;24.766;2023-05-23T06:21:50;22.50;46.00
80234;DHT22;69712;42.142;24.766;2023-05-23T06:24:15;23.80;44.80
80234;DHT22;69712;42.142;24.766;2023-05-23T06:26:41;25.00;43.00
80234;DHT22;69712;42.142;24.766;2023-05-23T06:29:07;25.60;40.80
80234;DHT22;69712;42.142;24.766;2023-05-23T06:31:33;26.00;39.30
80234;DHT22;69712;42.142;24.766;2023-05-23T06:34:00;27.20;37.30
80234;DHT22;69712;42.142;24.766;2023-05-23T06:36:25;27.20;36.50
80234;DHT22;69712;42.142;24.766;2023-05-23T06:38:51;27.70;36.10
80234;DHT22;69712;42.142;24.766;2023-05-23T06:41:17;27.70;36.00
80234;DHT22;69712;42.142;24.766;2023-05-23T06:43:42;28.10;35.00
80234;DHT22;69712;42.142;24.766;2023-05-23T06:46:08;28.40;35.40
80234;DHT22;69712;42.142;24.766;2023-05-23T06:48:34;28.00;34.80
80234;DHT22;69712;42.142;24.766;2023-05-23T06:50:59;28.10;34.80
80234;DHT22;69712;42.142;24.766;2023-05-23T06:53:25;29.10;34.10
80234;DHT22;69712;42.142;24.766;2023-05-23T06:55:51;29.90;32.50
80234;DHT22;69712;42.142;24.766;2023-05-23T06:58:17;31.00;31.60
80234;DHT22;69712;42.142;24.766;2023-05-23T07:00:42;30.40;31.40
80234;DHT22;69712;42.142;24.766;2023-05-23T07:03:08;30.40;31.90
80234;DHT22;69712;42.142;24.766;2023-05-23T07:05:34;30.20;33.00
80234;DHT22;69712;42.142;24.766;2023-05-23T07:08:01;31.40;30.90
80234;DHT22;69712;42.142;24.766;2023-05-23T07:10:26;33.00;29.50
80234;DHT22;69712;42.142;24.766;2023-05-23T07:12:52;34.10;28.00
80234;DHT22;69712;42.142;24.766;2023-05-23T07:15:19;35.00;27.10
80234;DHT22;69712;42.142;24.766;2023-05-23T07:17:45;34.00;27.80
80234;DHT22;69712;42.142;24.766;2023-05-23T07:20:10;32.50;28.50
80234;DHT22;69712;42.142;24.766;2023-05-23T07:22:36;31.60;29.70
80234;DHT22;69712;42.142;24.766;2023-05-23T07:25:02;32.20;29.30
80234;DHT22;69712;42.142;24.766;2023-05-23T07:27:28;33.70;28.20
80234;DHT22;69712;42.142;24.766;2023-05-23T07:29:53;34.60;27.30
80234;DHT22;69712;42.142;24.766;2023-05-23T07:32:19;35.40;26.60
80234;DHT22;69712;42.142;24.766;2023-05-23T07:34:45;35.80;26.20
80234;DHT22;69712;42.142;24.766;2023-05-23T07:37:11;35.70;26.10
80234;DHT22;69712;42.142;24.766;2023-05-23T07:39:36;36.30;26.40
80234;DHT22;69712;42.142;24.766;2023-05-23T07:42:02;35.00;25.70
80234;DHT22;69712;42.142;24.766;2023-05-23T07:44:28;34.30;27.40
80234;DHT22;69712;42.142;24.766;2023-05-23T07:46:54;33.70;27.50
80234;DHT22;69712;42.142;24.766;2023-05-23T07:49:20;35.10;26.30
80234;DHT22;69712;42.142;24.766;2023-05-23T07:51:45;35.90;25.70
80234;DHT22;69712;42.142;24.766;2023-05-23T07:54:11;36.80;25.00
80234;DHT22;69712;42.142;24.766;2023-05-23T07:56:38;37.50;24.60
80234;DHT22;69712;42.142;24.766;2023-05-23T07:59:04;37.50;24.20
80234;DHT22;69712;42.142;24.766;2023-05-23T08:01:29;37.50;24.50
80234;DHT22;69712;42.142;24.766;2023-05-23T08:03:55;37.10;23.80
80234;DHT22;69712;42.142;24.766;2023-05-23T08:06:21;37.10;24.60
80234;DHT22;69712;42.142;24.766;2023-05-23T08:08:47;36.80;23.90
80234;DHT22;69712;42.142;24.766;2023-05-23T08:11:12;34.80;25.20
80234;DHT22;69712;42.142;24.766;2023-05-23T08:13:39;36.60;24.70
80234;DHT22;69712;42.142;24.766;2023-05-23T08:16:05;36.80;23.70
80234;DHT22;69712;42.142;24.766;2023-05-23T08:18:31;38.20;23.20
80234;DHT22;69712;42.142;24.766;2023-05-23T08:20:56;38.60;21.80
80234;DHT22;69712;42.142;24.766;2023-05-23T08:23:22;39.40;22.20
80234;DHT22;69712;42.142;24.766;2023-05-23T08:25:48;39.40;21.50
80234;DHT22;69712;42.142;24.766;2023-05-23T08:28:14;39.30;21.20
80234;DHT22;69712;42.142;24.766;2023-05-23T08:30:39;38.80;23.00
80234;DHT22;69712;42.142;24.766;2023-05-23T08:33:06;38.80;21.90
80234;DHT22;69712;42.142;24.766;2023-05-23T08:35:32;38.90;21.30
80234;DHT22;69712;42.142;24.766;2023-05-23T08:38:04;39.00;21.50
80234;DHT22;69712;42.142;24.766;2023-05-23T08:40:31;39.30;21.80
80234;DHT22;69712;42.142;24.766;2023-05-23T08:42:58;39.80;20.60
80234;DHT22;69712;42.142;24.766;2023-05-23T08:45:24;39.90;20.40
80234;DHT22;69712;42.142;24.766;2023-05-23T08:47:51;39.40;20.50
80234;DHT22;69712;42.142;24.766;2023-05-23T08:50:17;39.10;21.20
80234;DHT22;69712;42.142;24.766;2023-05-23T08:52:56;39.40;20.80
80234;DHT22;69712;42.142;24.766;2023-05-23T08:55:28;39.70;20.70
80234;DHT22;69712;42.142;24.766;2023-05-23T08:57:56;39.90;20.90
80234;DHT22;69712;42.142;24.766;2023-05-23T09:00:25;40.30;20.00
80234;DHT22;69712;42.142;24.766;2023-05-23T09:02:51;39.10;21.60
80234;DHT22;69712;42.142;24.766;2023-05-23T09:05:19;39.20;21.20
80234;DHT22;69712;42.142;24.766;2023-05-23T09:07:46;39.70;20.40
80234;DHT22;69712;42.142;24.766;2023-05-23T09:10:15;37.10;20.80
80234;DHT22;69712;42.142;24.766;2023-05-23T09:12:43;37.90;21.40
80234;DHT22;69712;42.142;24.766;2023-05-23T09:15:09;38.30;20.90
80234;DHT22;69712;42.142;24.766;2023-05-23T09:17:36;37.90;20.50
80234;DHT22;69712;42.142;24.766;2023-05-23T09:20:13;37.40;21.10
80234;DHT22;69712;42.142;24.766;2023-05-23T09:22:40;36.90;21.30
80234;DHT22;69712;42.142;24.766;2023-05-23T09:25:06;35.90;22.50
80234;DHT22;69712;42.142;24.766;2023-05-23T09:27:32;35.20;22.60
80234;DHT22;69712;42.142;24.766;2023-05-23T09:30:08;34.30;24.50
80234;DHT22;69712;42.142;24.766;2023-05-23T09:32:35;33.60;23.90
80234;DHT22;69712;42.142;24.766;2023-05-23T09:35:05;33.40;24.10
80234;DHT22;69712;42.142;24.766;2023-05-23T09:37:39;31.20;26.20
80234;DHT22;69712;42.142;24.766;2023-05-23T09:40:14;30.60;26.60
80234;DHT22;69712;42.142;24.766;2023-05-23T09:42:45;31.10;27.00
80234;DHT22;69712;42.142;24.766;2023-05-23T09:45:12;31.40;25.90
80234;DHT22;69712;42.142;24.766;2023-05-23T09:47:37;31.30;26.10
80234;DHT22;69712;42.142;24.766;2023-05-23T09:50:04;31.00;26.40
80234;DHT22;69712;42.142;24.766;2023-05-23T09:52:35;30.70;27.70
80234;DHT22;69712;42.142;24.766;2023-05-23T09:55:02;30.20;27.50
80234;DHT22;69712;42.142;24.766;2023-05-23T09:57:29;30.10;27.00
80234;DHT22;69712;42.142;24.766;2023-05-23T09:59:58;29.90;27.20
80234;DHT22;69712;42.142;24.766;2023-05-23T10:02:55;29.60;26.90
80234;DHT22;69712;42.142;24.766;2023-05-23T10:08:01;29.20;27.80
80234;DHT22;69712;42.142;24.766;2023-05-23T10:10:30;29.10;28.30
80234;DHT22;69712;42.142;24.766;2023-05-23T10:12:59;29.10;28.10
80234;DHT22;69712;42.142;24.766;2023-05-23T10:15:32;28.90;29.80
80234;DHT22;69712;42.142;24.766;2023-05-23T10:18:09;28.70;30.30
80234;DHT22;69712;42.142;24.766;2023-05-23T10:20:39;28.90;29.70
80234;DHT22;69712;42.142;24.766;2023-05-23T10:23:07;29.30;28.80
80234;DHT22;69712;42.142;24.766;2023-05-23T10:25:32;29.30;28.70
80234;DHT22;69712;42.142;24.766;2023-05-23T10:28:01;27.80;28.90
80234;DHT22;69712;42.142;24.766;2023-05-23T10:30:27;27.70;30.20
80234;DHT22;69712;42.142;24.766;2023-05-23T10:32:56;28.10;30.40
80234;DHT22;69712;42.142;24.766;2023-05-23T10:35:47;28.30;31.10
80234;DHT22;69712;42.142;24.766;2023-05-23T10:38:35;28.50;29.80
80234;DHT22;69712;42.142;24.766;2023-05-23T10:41:22;28.60;30.10
80234;DHT22;69712;42.142;24.766;2023-05-23T10:46:50;29.20;28.90
80234;DHT22;69712;42.142;24.766;2023-05-23T10:49:20;29.10;29.60
80234;DHT22;69712;42.142;24.766;2023-05-23T10:51:48;28.60;29.50
80234;DHT22;69712;42.142;24.766;2023-05-23T10:54:17;29.20;30.60
80234;DHT22;69712;42.142;24.766;2023-05-23T10:56:44;29.50;30.30
80234;DHT22;69712;42.142;24.766;2023-05-23T10:59:21;28.10;30.10
80234;DHT22;69712;42.142;24.766;2023-05-23T11:01:50;27.80;32.80
80234;DHT22;69712;42.142;24.766;2023-05-23T11:04:24;28.00;30.70
80234;DHT22;69712;42.142;24.766;2023-05-23T11:06:53;28.10;30.60
80234;DHT22;69712;42.142;24.766;2023-05-23T11:09:19;28.50;31.40
80234;DHT22;69712;42.142;24.766;2023-05-23T11:12:06;30.60;30.30
80234;DHT22;69712;42.142;24.766;2023-05-23T11:14:49;31.70;28.20
80234;DHT22;69712;42.142;24.766;2023-05-23T11:17:16;32.40;27.30
80234;DHT22;69712;42.142;24.766;2023-05-23T11:22:29;31.70;26.60
80234;DHT22;69712;42.142;24.766;2023-05-23T11:24:57;31.10;27.00
80234;DHT22;69712;42.142;24.766;2023-05-23T11:27:32;30.20;27.80
80234;DHT22;69712;42.142;24.766;2023-05-23T11:30:12;29.50;29.20
80234;DHT22;69712;42.142;24.766;2023-05-23T11:32:39;30.10;29.60
80234;DHT22;69712;42.142;24.766;2023-05-23T11:35:07;31.60;27.40
80234;DHT22;69712;42.142;24.766;2023-05-23T11:37:33;32.90;25.60
80234;DHT22;69712;42.142;24.766;2023-05-23T11:40:52;34.10;24.70
80234;DHT22;69712;42.142;24.766;2023-05-23T11:43:16;35.40;23.30
80234;DHT22;69712;42.142;24.766;2023-05-23T11:45:42;36.00;23.20
80234;DHT22;69712;42.142;24.766;2023-05-23T11:48:15;36.00;22.00
80234;DHT22;69712;42.142;24.766;2023-05-23T11:50:53;34.40;22.30
80234;DHT22;69712;42.142;24.766;2023-05-23T11:53:21;34.70;24.00
80234;DHT22;69712;42.142;24.766;2023-05-23T11:55:52;36.20;23.00
80234;DHT22;69712;42.142;24.766;2023-05-23T11:58:25;35.30;23.10
80234;DHT22;69712;42.142;24.766;2023-05-23T12:00:51;33.10;25.30
80234;DHT22;69712;42.142;24.766;2023-05-23T12:03:17;30.60;28.70
80234;DHT22;69712;42.142;24.766;2023-05-23T12:05:43;28.40;33.30
80234;DHT22;69712;42.142;24.766;2023-05-23T12:08:12;27.60;35.60
80234;DHT22;69712;42.142;24.766;2023-05-23T12:10:49;26.20;38.10
80234;DHT22;69712;42.142;24.766;2023-05-23T12:13:15;25.60;38.40
80234;DHT22;69712;42.142;24.766;2023-05-23T12:15:41;25.30;39.30
80234;DHT22;69712;42.142;24.766;2023-05-23T12:18:07;25.40;39.00
80234;DHT22;69712;42.142;24.766;2023-05-23T12:20:32;25.30;37.00
80234;DHT22;69712;42.142;24.766;2023-05-23T12:23:03;24.60;38.80
80234;DHT22;69712;42.142;24.766;2023-05-23T12:25:36;24.20;39.20
80234;DHT22;69712;42.142;24.766;2023-05-23T12:28:02;23.70;40.30
80234;DHT22;69712;42.142;24.766;2023-05-23T12:30:28;23.80;40.60
80234;DHT22;69712;42.142;24.766;2023-05-23T12:32:54;24.10;40.80
80234;DHT22;69712;42.142;24.766;2023-05-23T12:35:19;24.00;40.90
80234;DHT22;69712;42.142;24.766;2023-05-23T12:37:45;24.40;40.80
80234;DHT22;69712;42.142;24.766;2023-05-23T12:40:14;24.50;40.40
80234;DHT22;69712;42.142;24.766;2023-05-23T12:42:56;24.20;39.80
80234;DHT22;69712;42.142;24.766;2023-05-23T12:45:32;24.10;40.60
80234;DHT22;69712;42.142;24.766;2023-05-23T12:47:58;24.20;40.60
80234;DHT22;69712;42.142;24.766;2023-05-23T12:50:24;24.90;38.90
80234;DHT22;69712;42.142;24.766;2023-05-23T12:52:50;25.60;37.70
80234;DHT22;69712;42.142;24.766;2023-05-23T12:55:17;26.70;36.20
80234;DHT22;69712;42.142;24.766;2023-05-23T12:57:42;27.90;35.00
80234;DHT22;69712;42.142;24.766;2023-05-23T13:00:09;30.00;31.90
80234;DHT22;69712;42.142;24.766;2023-05-23T13:02:35;29.50;30.10
80234;DHT22;69712;42.142;24.766;2023-05-23T13:05:01;29.40;31.20
80234;DHT22;69712;42.142;24.766;2023-05-23T13:07:26;29.70;30.90
80234;DHT22;69712;42.142;24.766;2023-05-23T13:09:52;29.30;31.70
80234;DHT22;69712;42.142;24.766;2023-05-23T13:12:18;29.00;31.90
80234;DHT22;69712;42.142;24.766;2023-05-23T13:14:43;28.70;32.10
80234;DHT22;69712;42.142;24.766;2023-05-23T13:17:09;27.80;34.00
80234;DHT22;69712;42.142;24.766;2023-05-23T13:19:35;28.10;32.90
80234;DHT22;69712;42.142;24.766;2023-05-23T13:22:01;28.90;32.60
80234;DHT22;69712;42.142;24.766;2023-05-23T13:24:29;29.90;30.00
80234;DHT22;69712;42.142;24.766;2023-05-23T13:26:55;29.20;31.60
80234;DHT22;69712;42.142;24.766;2023-05-23T13:29:20;29.70;30.80
80234;DHT22;69712;42.142;24.766;2023-05-23T13:31:46;29.30;31.60
80234;DHT22;69712;42.142;24.766;2023-05-23T13:34:12;29.60;31.30
80234;DHT22;69712;42.142;24.766;2023-05-23T13:36:38;30.20;29.60
80234;DHT22;69712;42.142;24.766;2023-05-23T13:39:03;29.10;30.00
80234;DHT22;69712;42.142;24.766;2023-05-23T13:41:29;28.20;31.00
80234;DHT22;69712;42.142;24.766;2023-05-23T13:43:55;28.40;32.10
80234;DHT22;69712;42.142;24.766;2023-05-23T13:46:21;28.20;32.00
80234;DHT22;69712;42.142;24.766;2023-05-23T13:48:46;27.90;32.30
80234;DHT22;69712;42.142;24.766;2023-05-23T13:51:12;27.90;32.80
80234;DHT22;69712;42.142;24.766;2023-05-23T13:53:38;27.10;34.30
80234;DHT22;69712;42.142;24.766;2023-05-23T13:56:04;26.20;35.20
80234;DHT22;69712;42.142;24.766;2023-05-23T13:58:29;26.30;36.10
80234;DHT22;69712;42.142;24.766;2023-05-23T14:00:55;25.80;36.10
80234;DHT22;69712;42.142;24.766;2023-05-23T14:03:21;25.90;36.30
80234;DHT22;69712;42.142;24.766;2023-05-23T14:05:47;25.80;36.70
80234;DHT22;69712;42.142;24.766;2023-05-23T14:08:12;26.00;36.20
80234;DHT22;69712;42.142;24.766;2023-05-23T14:10:39;25.90;35.30
80234;DHT22;69712;42.142;24.766;2023-05-23T14:13:05;25.60;36.60
80234;DHT22;69712;42.142;24.766;2023-05-23T14:15:32;25.60;36.90
80234;DHT22;69712;42.142;24.766;2023-05-23T14:17:58;25.80;36.40
80234;DHT22;69712;42.142;24.766;2023-05-23T14:20:23;25.50;35.70
80234;DHT22;69712;42.142;24.766;2023-05-23T14:22:49;25.20;35.90
80234;DHT22;69712;42.142;24.766;2023-05-23T14:25:16;25.10;36.80
80234;DHT22;69712;42.142;24.766;2023-05-23T14:27:42;25.10;36.20
80234;DHT22;69712;42.142;24.766;2023-05-23T14:30:08;25.20;36.10
80234;DHT22;69712;42.142;24.766;2023-05-23T14:32:34;25.50;36.00
80234;DHT22;69712;42.142;24.766;2023-05-23T14:35:07;25.50;36.60
80234;DHT22;69712;42.142;24.766;2023-05-23T14:37:33;25.60;37.20
80234;DHT22;69712;42.142;24.766;2023-05-23T14:39:59;25.80;38.10
80234;DHT22;69712;42.142;24.766;2023-05-23T14:42:25;25.90;38.40
80234;DHT22;69712;42.142;24.766;2023-05-23T14:44:52;26.00;38.50
80234;DHT22;69712;42.142;24.766;2023-05-23T14:47:18;26.10;38.10
80234;DHT22;69712;42.142;24.766;2023-05-23T14:49:44;26.00;37.70
80234;DHT22;69712;42.142;24.766;2023-05-23T14:52:10;26.20;37.60
80234;DHT22;69712;42.142;24.766;2023-05-23T14:54:37;26.40;38.10
80234;DHT22;69712;42.142;24.766;2023-05-23T14:57:08;26.40;38.50
80234;DHT22;69712;42.142;24.766;2023-05-23T14:59:34;26.40;38.20
80234;DHT22;69712;42.142;24.766;2023-05-23T15:02:01;26.40;38.40
80234;DHT22;69712;42.142;24.766;2023-05-23T15:04:27;26.40;38.30
80234;DHT22;69712;42.142;24.766;2023-05-23T15:06:53;26.40;38.50
80234;DHT22;69712;42.142;24.766;2023-05-23T15:09:18;26.40;38.30
80234;DHT22;69712;42.142;24.766;2023-05-23T15:11:44;26.00;37.90
80234;DHT22;69712;42.142;24.766;2023-05-23T15:14:11;25.40;39.60
80234;DHT22;69712;42.142;24.766;2023-05-23T15:16:37;25.40;40.30
80234;DHT22;69712;42.142;24.766;2023-05-23T15:19:03;25.50;40.40
80234;DHT22;69712;42.142;24.766;2023-05-23T15:21:29;25.60;40.00
80234;DHT22;69712;42.142;24.766;2023-05-23T15:23:56;25.70;40.10
80234;DHT22;69712;42.142;24.766;2023-05-23T15:26:24;25.90;40.10
80234;DHT22;69712;42.142;24.766;2023-05-23T15:28:49;25.90;40.00
80234;DHT22;69712;42.142;24.766;2023-05-23T15:31:15;25.90;39.50
80234;DHT22;69712;42.142;24.766;2023-05-23T15:33:41;26.00;38.70